TimeCDT,TemperatureF,Dew PointF,Humidity,Sea Level PressureIn,VisibilityMPH,Wind Direction,Wind SpeedMPH,Gust SpeedMPH,PrecipitationIn,Events,Conditions,WindDirDegrees,DateUTC
12:52 AM,45.0,42.1,90,30.03,10.0,NW,3.5,-,0.02,,Overcast,310,2012-10-10 05:52:00
1:52 AM,43.0,41.0,93,30.05,10.0,West,6.9,-,N/A,,Partly Cloudy,270,2012-10-10 06:52:00
2:52 AM,42.1,39.9,92,30.06,10.0,West,8.1,-,N/A,,Clear,270,2012-10-10 07:52:00
3:52 AM,42.1,37.9,85,30.07,10.0,WNW,11.5,-,N/A,,Clear,300,2012-10-10 08:52:00
4:52 AM,39.9,36.0,86,30.10,10.0,WNW,10.4,-,N/A,,Clear,300,2012-10-10 09:52:00
5:52 AM,37.9,34.0,86,30.13,10.0,West,8.1,-,N/A,,Clear,280,2012-10-10 10:52:00
6:52 AM,37.0,33.1,86,30.15,10.0,West,8.1,-,N/A,,Clear,280,2012-10-10 11:52:00
7:52 AM,37.9,33.1,83,30.19,10.0,West,8.1,-,N/A,,Clear,260,2012-10-10 12:52:00
8:52 AM,41.0,32.0,70,30.22,10.0,WNW,10.4,-,N/A,,Clear,300,2012-10-10 13:52:00
9:52 AM,45.0,32.0,60,30.25,10.0,NW,9.2,-,N/A,,Clear,320,2012-10-10 14:52:00
10:52 AM,48.0,32.0,54,30.27,10.0,NW,9.2,-,N/A,,Clear,310,2012-10-10 15:52:00
11:52 AM,52.0,30.0,43,30.27,10.0,NW,12.7,21.9,N/A,,Clear,320,2012-10-10 16:52:00
12:52 PM,53.1,27.0,37,30.25,10.0,NNW,13.8,19.6,N/A,,Partly Cloudy,330,2012-10-10 17:52:00
1:52 PM,55.0,27.0,34,30.23,10.0,NW,15.0,21.9,N/A,,Clear,310,2012-10-10 18:52:00
2:52 PM,55.9,28.0,34,30.22,10.0,WNW,13.8,23.0,N/A,,Partly Cloudy,300,2012-10-10 19:52:00
3:52 PM,57.0,28.0,33,30.20,10.0,WNW,10.4,19.6,N/A,,Clear,290,2012-10-10 20:52:00
4:52 PM,55.9,28.0,34,30.20,10.0,WNW,11.5,-,N/A,,Clear,290,2012-10-10 21:52:00
5:52 PM,54.0,28.9,38,30.19,10.0,West,6.9,-,N/A,,Clear,270,2012-10-10 22:52:00
6:52 PM,50.0,30.0,46,30.21,10.0,Calm,Calm,-,N/A,,Clear,0,2012-10-10 23:52:00
7:52 PM,44.1,33.1,65,30.22,10.0,Calm,Calm,-,N/A,,Clear,0,2012-10-11 00:52:00
8:52 PM,39.9,32.0,73,30.22,10.0,Calm,Calm,-,N/A,,Clear,0,2012-10-11 01:52:00
9:52 PM,41.0,32.0,70,30.23,10.0,Calm,Calm,-,N/A,,Clear,0,2012-10-11 02:52:00
10:52 PM,41.0,32.0,70,30.22,10.0,Calm,Calm,-,N/A,,Clear,0,2012-10-11 03:52:00
11:52 PM,37.9,30.9,76,30.22,10.0,Calm,Calm,-,N/A,,Clear,0,2012-10-11 04:52:00